Data for 01/08/2011

Time Sea-Level Adjusted Pressure Absolute Pressure Temperature Relative Humidity Dew Point   
(mb) (inHg) (mb) (inHg) (C) (F) (%) (C) (F)
00:05 1009 29.8 838 24.75 2.7 36.9 79 -0.6 30.9
00:10 1009 29.8 838 24.75 2.7 36.9 79 -0.5 31
00:15 1008 29.77 838 24.75 2.5 36.6 81 -0.5 31.1
00:20 1008 29.77 838 24.75 2.2 36 81 -0.7 30.8
00:25 1008 29.77 838 24.75 2.2 36 82 -0.5 31.1
00:30 1008 29.77 838 24.75 2.2 35.9 82 -0.6 31
00:35 1008 29.77 837 24.72 2.5 36.5 81 -0.5 31.1
00:40 1008 29.77 837 24.72 2.5 36.5 81 -0.4 31.3
00:45 1008 29.77 837 24.72 2.3 36.1 82 -0.4 31.2
00:50 1008 29.77 837 24.72 2.3 36.1 83 -0.4 31.3
00:55 1008 29.77 837 24.72 2.2 36 82 -0.5 31.1
01:00 1008 29.77 837 24.72 2.3 36.2 81 -0.7 30.7
01:05 1008 29.77 837 24.72 2.5 36.5 82 -0.3 31.4
01:10 1008 29.77 837 24.72 2.2 36 82 -0.5 31
01:15 1008 29.77 837 24.72 2.1 35.8 83 -0.5 31.1
01:20 1008 29.77 837 24.72 1.9 35.4 83 -0.6 30.9
01:25 1008 29.77 837 24.72 2.1 35.8 82 -0.7 30.8
01:30 1008 29.77 837 24.72 2.5 36.6 79 -0.7 30.8
01:35 1008 29.77 837 24.72 2.7 36.9 79 -0.6 30.9
01:40 1008 29.77 837 24.72 2.7 36.9 78 -0.7 30.7
01:45 1008 29.77 837 24.72 2.8 37.1 78 -0.6 30.9
01:50 1008 29.77 837 24.72 2.8 37 78 -0.6 30.8
01:55 1008 29.77 837 24.72 2.7 36.8 79 -0.7 30.8
02:00 1008 29.77 837 24.72 2.5 36.4 80 -0.6 30.9
02:05 1008 29.77 837 24.72 2.7 36.8 78 -0.9 30.5
02:10 1008 29.77 837 24.72 2.8 37.1 80 -0.3 31.5
02:15 1008 29.77 837 24.72 2.3 36.1 81 -0.7 30.8
02:20 1008 29.77 837 24.72 2.4 36.2 77 -1.3 29.7
02:25 1007 29.74 837 24.72 2.8 37.1 75 -1.1 29.9
02:30 1007 29.74 837 24.72 2.9 37.2 75 -1 30.2
02:35 1007 29.74 837 24.72 2.9 37.1 75 -1.1 30
02:40 1007 29.74 836 24.69 2.8 37 76 -1 30.2
02:45 1007 29.74 836 24.69 2.7 36.8 77 -1 30.1
02:50 1007 29.74 836 24.69 2.3 36.2 81 -0.6 30.9
02:55 1007 29.74 836 24.69 2.1 35.7 80 -1.1 30.1
03:00 1007 29.74 836 24.69 2.3 36.2 76 -1.4 29.4
03:05 1007 29.74 836 24.69 2.6 36.8 76 -1.2 29.8
03:10 1007 29.74 836 24.69 2.7 36.9 77 -0.9 30.4
03:15 1007 29.74 836 24.69 2.5 36.5 79 -0.7 30.7
03:20 1007 29.74 836 24.69 2.2 36 81 -0.7 30.7
03:25 1007 29.74 836 24.69 2.1 35.9 80 -0.9 30.4
03:30 1007 29.74 836 24.69 2.4 36.4 79 -0.9 30.4
03:35 1007 29.74 836 24.69 2.6 36.7 78 -0.8 30.6
03:40 1007 29.74 836 24.69 2.5 36.6 79 -0.7 30.8
03:45 1007 29.74 836 24.69 2.1 35.9 82 -0.6 31
03:50 1007 29.74 836 24.69 1.9 35.4 83 -0.7 30.8
03:55 1007 29.74 836 24.69 1.7 35 84 -0.7 30.8
04:00 1007 29.74 836 24.69 1.6 34.9 85 -0.7 30.7
04:05 1007 29.74 836 24.69 1.5 34.8 84 -0.8 30.5
04:10 1007 29.74 836 24.69 1.5 34.7 85 -0.8 30.6
04:15 1007 29.74 836 24.69 1.5 34.7 85 -0.8 30.5
04:20 1007 29.74 836 24.69 1.3 34.3 85 -0.9 30.3
04:25 1007 29.74 836 24.69 1.2 34.2 85 -1.1 30.1
04:30 1007 29.74 836 24.69 1.3 34.3 85 -1 30.2
04:35 1007 29.74 836 24.69 1.3 34.4 85 -0.9 30.4
04:40 1007 29.74 836 24.69 1.5 34.7 82 -1.3 29.7
04:45 1007 29.74 836 24.69 1.8 35.2 77 -1.9 28.5
04:50 1007 29.74 836 24.69 2 35.5 78 -1.5 29.3
04:55 1007 29.74 836 24.69 1.9 35.4 78 -1.5 29.3
05:00 1007 29.74 836 24.69 1.9 35.5 78 -1.5 29.3
05:05 1007 29.74 836 24.69 1.9 35.4 74 -2.2 28.1
05:10 1007 29.74 836 24.69 2 35.7 73 -2.3 27.9
05:15 1007 29.74 836 24.69 2.1 35.8 78 -1.3 29.6
05:20 1007 29.74 836 24.69 1.8 35.2 80 -1.2 29.8
05:25 1007 29.74 836 24.69 1.7 35.1 78 -1.8 28.8
05:30 1007 29.74 836 24.69 1.9 35.3 78 -1.6 29.2
05:35 1007 29.74 836 24.69 1.8 35.2 80 -1.4 29.5
05:40 1007 29.74 836 24.69 1.8 35.2 77 -1.9 28.6
05:45 1007 29.74 836 24.69 1.9 35.3 77 -1.8 28.8
05:50 1007 29.74 836 24.69 1.8 35.3 77 -1.8 28.8
05:55 1007 29.74 836 24.69 1.8 35.3 77 -1.7 29
06:00 1007 29.74 836 24.69 1.9 35.4 74 -2.2 28
06:05 1007 29.74 836 24.69 2.2 36 73 -2.1 28.2
06:10 1007 29.74 836 24.69 2.2 36 71 -2.4 27.7
06:15 1007 29.74 836 24.69 2.2 35.9 74 -2 28.4
06:20 1007 29.74 836 24.69 2.2 36 75 -1.7 29
06:25 1007 29.74 836 24.69 2.1 35.7 75 -2 28.5
06:30 1007 29.74 836 24.69 2 35.6 73 -2.3 27.8
06:35 1007 29.74 836 24.69 2.1 35.8 74 -2.1 28.3
06:40 1007 29.74 836 24.69 2.1 35.7 75 -1.9 28.6
06:45 1007 29.74 836 24.69 2 35.6 74 -2.1 28.2
06:50 1007 29.74 836 24.69 2 35.6 74 -2.2 28.1
06:55 1007 29.74 836 24.69 2 35.6 75 -1.9 28.6
07:00 1007 29.74 836 24.69 1.8 35.3 76 -2 28.4
07:05 1007 29.74 836 24.69 1.8 35.3 75 -2.2 28.1
07:10 1006 29.71 836 24.69 1.9 35.5 74 -2.2 28
07:15 1006 29.71 836 24.69 1.9 35.4 76 -2 28.4
07:20 1006 29.71 836 24.69 1.8 35.3 75 -2.2 28
07:25 1006 29.71 835 24.66 2 35.6 71 -2.8 27
07:30 1006 29.71 835 24.66 2.1 35.7 74 -2.1 28.3
07:35 1006 29.71 835 24.66 1.9 35.5 73 -2.5 27.5
07:40 1006 29.71 835 24.66 2 35.6 72 -2.6 27.4
07:45 1006 29.71 835 24.66 1.9 35.4 72 -2.6 27.3
07:50 1006 29.71 835 24.66 1.6 35 75 -2.3 27.8
07:55 1006 29.71 835 24.66 1.4 34.6 75 -2.4 27.6
08:00 1006 29.71 835 24.66 1.5 34.7 74 -2.6 27.3
08:05 1006 29.71 835 24.66 1.6 34.8 75 -2.5 27.6
08:10 1006 29.71 835 24.66 1.5 34.7 75 -2.4 27.7
08:15 1006 29.71 835 24.66 1.5 34.8 76 -2.2 28
08:20 1006 29.71 835 24.66 1.4 34.6 78 -1.9 28.5
08:25 1006 29.71 835 24.66 1.4 34.5 77 -2.2 28.1
08:30 1006 29.71 835 24.66 1.4 34.6 80 -1.7 28.9
08:35 1006 29.71 835 24.66 1.2 34.2 81 -1.8 28.8
08:40 1006 29.71 835 24.66 1.3 34.4 80 -1.7 28.9
08:45 1006 29.71 836 24.69 1.5 34.6 80 -1.6 29.2
08:50 1006 29.71 836 24.69 1.3 34.4 82 -1.5 29.4
08:55 1007 29.74 836 24.69 1.2 34.2 83 -1.3 29.7
09:00 1006 29.71 836 24.69 1.2 34.1 86 -1 30.2
09:05 1007 29.74 836 24.69 1 33.9 87 -0.8 30.5
09:10 1007 29.74 836 24.69 1 33.7 87 -0.9 30.4
09:15 1007 29.74 836 24.69 0.8 33.5 89 -0.8 30.6
09:20 1007 29.74 836 24.69 1 33.7 87 -0.9 30.3
09:25 1007 29.74 836 24.69 1.2 34.1 86 -0.9 30.3
09:30 1007 29.74 836 24.69 1.3 34.3 85 -0.9 30.4
09:35 1007 29.74 836 24.69 1.4 34.4 84 -1 30.2
09:40 1007 29.74 836 24.69 1.4 34.4 85 -0.9 30.4
09:45 1007 29.74 836 24.69 1.3 34.3 86 -0.8 30.5
09:50 1007 29.74 836 24.69 1.2 34.1 87 -0.8 30.6
09:55 1007 29.74 836 24.69 1.1 34.1 85 -1.1 29.9
10:00 1007 29.74 836 24.69 1.2 34.1 86 -0.9 30.5
10:05 1007 29.74 836 24.69 1 33.8 85 -1.2 29.8
10:10 1007 29.74 836 24.69 1 33.7 86 -1.1 30
10:15 1007 29.74 836 24.69 0.9 33.6 88 -0.9 30.4
10:20 1007 29.74 836 24.69 0.8 33.5 89 -0.8 30.5
10:25 1007 29.74 836 24.69 0.6 33.1 90 -0.9 30.4
10:30 1007 29.74 836 24.69 0.3 32.6 91 -1 30.3
10:35 1007 29.74 836 24.69 0.2 32.3 91 -1.1 29.9
10:40 1007 29.74 836 24.69 0.1 32.3 89 -1.4 29.5
10:45 1007 29.74 836 24.69 0.1 32.1 88 -1.7 28.9
10:50 1007 29.74 836 24.69 0.1 32.3 82 -2.6 27.4
10:55 1007 29.74 836 24.69 0.3 32.5 76 -3.4 25.9
11:00 1007 29.74 836 24.69 0.4 32.7 76 -3.4 25.8
11:05 1007 29.74 836 24.69 0.3 32.6 78 -3 26.6
11:10 1007 29.74 836 24.69 0.2 32.3 80 -2.8 26.9
11:15 1007 29.74 836 24.69 0.2 32.3 80 -2.9 26.7
11:20 1007 29.74 836 24.69 0.2 32.4 74 -3.8 25.2
11:25 1007 29.74 836 24.69 0.2 32.4 66 -5.5 22.2
11:30 1007 29.74 836 24.69 0.1 32.1 66 -5.6 21.9
11:35 1007 29.74 837 24.72 -0.1 31.8 73 -4.4 24
11:40 1007 29.74 837 24.72 -0.5 31.2 70 -5.2 22.6
11:45 1008 29.77 837 24.72 -0.4 31.3 73 -4.6 23.8
11:50 1008 29.77 837 24.72 -0.7 30.7 74 -4.8 23.3
11:55 1008 29.77 837 24.72 -1 30.3 70 -5.7 21.8
12:00 1008 29.77 837 24.72 -0.6 30.8 68 -5.8 21.6
12:05 1008 29.77 837 24.72 -0.4 31.3 65 -6.1 21
12:10 1008 29.77 837 24.72 -0.6 31 67 -6 21.2
12:15 1008 29.77 837 24.72 -0.8 30.6 64 -6.7 20
12:20 1008 29.77 837 24.72 -0.7 30.7 61 -7.4 18.8
12:25 1008 29.77 837 24.72 -0.6 31 59 -7.6 18.3
12:30 1008 29.77 837 24.72 -0.5 31.1 59 -7.6 18.2
12:35 1008 29.77 837 24.72 -0.7 30.7 59 -7.7 18.1
12:40 1008 29.77 837 24.72 -0.7 30.8 54 -9 15.8
12:45 1008 29.77 837 24.72 -0.7 30.7 54 -8.9 16
12:50 1008 29.77 837 24.72 -0.9 30.4 57 -8.3 17.1
12:55 1008 29.77 837 24.72 -1.2 29.9 60 -8 17.7
13:00 1008 29.77 837 24.72 -1.5 29.3 60 -8.2 17.2
13:05 1008 29.77 837 24.72 -1.7 28.9 62 -8 17.5
13:10 1008 29.77 837 24.72 -1.7 29 65 -7.5 18.5
13:15 1008 29.77 837 24.72 -1.7 29 67 -7.1 19.2
13:20 1008 29.77 837 24.72 -2 28.4 69 -6.9 19.5
13:25 1008 29.77 837 24.72 -2.1 28.2 67 -7.4 18.6
13:30 1008 29.77 837 24.72 -2.2 28 64 -8.2 17.2
13:35 1008 29.77 837 24.72 -2.2 28 68 -7.4 18.8
13:40 1008 29.77 837 24.72 -2.4 27.6 68 -7.6 18.3
13:45 1008 29.77 837 24.72 -2.3 27.8 69 -7.4 18.8
13:50 1008 29.77 837 24.72 -2.4 27.6 69 -7.4 18.7
13:55 1008 29.77 838 24.75 -2.7 27.2 71 -7.2 19
14:00 1008 29.77 838 24.75 -2.7 27.2 78 -6.1 21.1
14:05 1008 29.77 838 24.75 -2.9 26.8 80 -5.8 21.6
14:10 1008 29.77 838 24.75 -3.2 26.3 83 -5.7 21.8
14:15 1008 29.77 838 24.75 -3.7 25.4 87 -5.6 22
14:20 1008 29.77 837 24.72 -4 24.9 86 -5.9 21.3
14:25 1008 29.77 837 24.72 -4 24.8 88 -5.8 21.6
14:30 1008 29.77 837 24.72 -4.1 24.7 88 -5.7 21.7
14:35 1008 29.77 837 24.72 -4.2 24.5 89 -5.7 21.7
14:40 1008 29.77 838 24.75 -3.9 25 87 -5.7 21.7
14:45 1008 29.77 838 24.75 -3.6 25.5 86 -5.6 22
14:50 1008 29.77 838 24.75 -3.7 25.3 84 -6.1 21.1
14:55 1008 29.77 838 24.75 -3.7 25.3 84 -6.1 21
15:00 1009 29.8 838 24.75 -3.7 25.4 83 -6.2 20.9
15:05 1009 29.8 838 24.75 -3.5 25.7 81 -6.3 20.7
15:10 1009 29.8 838 24.75 -3.5 25.8 76 -7.2 19.1
15:15 1009 29.8 838 24.75 -3.3 26.1 75 -7.1 19.1
15:20 1009 29.8 838 24.75 -3.2 26.2 73 -7.4 18.7
15:25 1009 29.8 838 24.75 -3.1 26.3 71 -7.7 18.1
15:30 1009 29.8 838 24.75 -3 26.7 67 -8.4 17
15:35 1009 29.8 838 24.75 -2.7 27.1 67 -8.1 17.5
15:40 1009 29.8 838 24.75 -2.9 26.8 60 -9.6 14.7
15:45 1009 29.8 838 24.75 -2.8 27 55 -10.5 13
15:50 1009 29.8 838 24.75 -2.4 27.7 50 -11.5 11.3
15:55 1009 29.8 838 24.75 -2.2 28 49 -11.5 11.3
16:00 1009 29.8 838 24.75 -2 28.5 52 -10.6 12.9
16:05 1009 29.8 838 24.75 -2.1 28.2 49 -11.4 11.4
16:10 1009 29.8 838 24.75 -2.3 27.9 52 -10.9 12.5
16:15 1009 29.8 838 24.75 -2.5 27.5 52 -11.2 11.9
16:20 1009 29.8 838 24.75 -2.6 27.3 54 -10.6 12.9
16:25 1009 29.8 838 24.75 -2.7 27.1 49 -12 10.4
16:30 1009 29.8 838 24.75 -2.7 27.2 48 -12.3 9.9
16:35 1009 29.8 838 24.75 -2.8 26.9 49 -12.1 10.3
16:40 1009 29.8 838 24.75 -3 26.7 52 -11.5 11.3
16:45 1009 29.8 838 24.75 -2.9 26.8 50 -12 10.4
16:50 1009 29.8 839 24.78 -2.8 26.9 50 -11.8 10.8
16:55 1009 29.8 839 24.78 -2.9 26.8 51 -11.8 10.8
17:00 1009 29.8 839 24.78 -3 26.6 50 -12 10.3
17:05 1010 29.83 839 24.78 -3 26.5 50 -12.1 10.3
17:10 1010 29.83 839 24.78 -3.1 26.4 50 -12.1 10.3
17:15 1010 29.83 839 24.78 -3.1 26.4 49 -12.4 9.6
17:20 1010 29.83 839 24.78 -3.1 26.5 50 -12 10.3
17:25 1010 29.83 839 24.78 -3.1 26.3 51 -11.8 10.7
17:30 1010 29.83 839 24.78 -3.3 26.1 51 -12 10.4
17:35 1010 29.83 839 24.78 -3.3 26 52 -12 10.5
17:40 1010 29.83 839 24.78 -3.4 25.9 50 -12.4 9.7
17:45 1010 29.83 839 24.78 -3.4 25.9 47 -13.3 8.1
17:50 1010 29.83 839 24.78 -3.4 25.9 46 -13.4 7.9
17:55 1010 29.83 839 24.78 -3.5 25.7 48 -12.9 8.8
18:00 1010 29.83 839 24.78 -3.5 25.6 47 -13.2 8.2
18:05 1010 29.83 839 24.78 -3.6 25.6 48 -13.1 8.5
18:10 1010 29.83 839 24.78 -3.6 25.5 51 -12.4 9.7
18:15 1010 29.83 839 24.78 -3.6 25.4 52 -12.1 10.2
18:20 1010 29.83 839 24.78 -3.7 25.3 53 -12.1 10.3
18:25 1010 29.83 839 24.78 -3.8 25.1 53 -12 10.4
18:30 1010 29.83 839 24.78 -3.8 25.2 51 -12.4 9.6
18:35 1010 29.83 839 24.78 -3.7 25.3 48 -13.2 8.2
18:40 1010 29.83 839 24.78 -3.7 25.3 51 -12.5 9.5
18:45 1010 29.83 839 24.78 -3.9 25 48 -13.3 8.1
18:50 1010 29.83 839 24.78 -3.9 25 50 -12.7 9.1
18:55 1010 29.83 839 24.78 -3.9 25.1 51 -12.5 9.5
19:00 1010 29.83 839 24.78 -3.9 25 53 -12.2 10
19:05 1010 29.83 839 24.78 -3.8 25.1 52 -12.4 9.6
19:10 1010 29.83 839 24.78 -3.9 24.9 51 -12.7 9.2
19:15 1010 29.83 839 24.78 -4.1 24.6 52 -12.5 9.6
19:20 1010 29.83 839 24.78 -4.1 24.6 53 -12.4 9.7
19:25 1010 29.83 839 24.78 -4.2 24.5 53 -12.4 9.6
19:30 1010 29.83 839 24.78 -4.1 24.7 50 -13 8.7
19:35 1010 29.83 839 24.78 -4.2 24.5 53 -12.3 9.8
19:40 1010 29.83 839 24.78 -4.1 24.5 52 -12.6 9.3
19:45 1010 29.83 839 24.78 -4.2 24.4 55 -12 10.4
19:50 1010 29.83 839 24.78 -4.4 24.1 55 -12.1 10.3
19:55 1010 29.83 839 24.78 -4.5 23.9 57 -11.8 10.8
20:00 1010 29.83 839 24.78 -4.6 23.8 59 -11.4 11.4
20:05 1010 29.83 839 24.78 -4.7 23.6 58 -11.7 10.9
20:10 1010 29.83 839 24.78 -4.8 23.4 58 -11.8 10.8
20:15 1010 29.83 839 24.78 -4.9 23.2 55 -12.6 9.3
20:20 1010 29.83 839 24.78 -5 22.9 54 -13 8.7
20:25 1010 29.83 839 24.78 -5.1 22.8 54 -12.9 8.7
20:30 1010 29.83 839 24.78 -5.2 22.7 55 -12.9 8.8
20:35 1010 29.83 839 24.78 -5.3 22.5 56 -12.7 9.2
20:40 1010 29.83 839 24.78 -5.3 22.4 59 -12.2 10.1
20:45 1010 29.83 839 24.78 -5.3 22.4 57 -12.5 9.5
20:50 1010 29.83 839 24.78 -5.5 22.2 57 -12.7 9.2
20:55 1010 29.83 839 24.78 -5.7 21.8 57 -12.9 8.7
21:00 1010 29.83 839 24.78 -5.8 21.6 57 -13 8.5
21:05 1010 29.83 839 24.78 -5.8 21.6 57 -13 8.5
21:10 1010 29.83 839 24.78 -5.8 21.5 57 -13.1 8.3
21:15 1010 29.83 839 24.78 -5.9 21.3 57 -13.2 8.3
21:20 1010 29.83 839 24.78 -6.4 20.5 59 -13.1 8.4
21:25 1010 29.83 839 24.78 -6.6 20.2 58 -13.5 7.7
21:30 1010 29.83 839 24.78 -6.5 20.3 57 -13.8 7.2
21:35 1010 29.83 839 24.78 -6.3 20.6 55 -13.9 7
21:40 1010 29.83 839 24.78 -6.4 20.5 54 -14.1 6.6
21:45 1010 29.83 839 24.78 -6.5 20.4 54 -14.3 6.2
21:50 1010 29.83 839 24.78 -6.5 20.3 54 -14.3 6.3
21:55 1010 29.83 839 24.78 -6.5 20.2 55 -14.2 6.4
22:00 1010 29.83 839 24.78 -7.2 19.1 56 -14.5 6
22:05 1010 29.83 839 24.78 -7.6 18.3 57 -14.7 5.6
22:10 1010 29.83 839 24.78 -7.7 18.2 58 -14.6 5.8
22:15 1010 29.83 839 24.78 -7.9 17.9 63 -13.7 7.4
22:20 1010 29.83 839 24.78 -7.9 17.8 64 -13.6 7.6
22:25 1010 29.83 840 24.81 -7.8 17.9 62 -13.9 6.9
22:30 1010 29.83 839 24.78 -7.4 18.7 59 -14.2 6.5
22:35 1010 29.83 839 24.78 -7.1 19.3 58 -13.9 7
22:40 1010 29.83 840 24.81 -6.9 19.6 58 -13.9 7
22:45 1010 29.83 840 24.81 -6.9 19.6 58 -13.8 7.2
22:50 1010 29.83 840 24.81 -6.9 19.6 58 -13.8 7.2
22:55 1010 29.83 840 24.81 -6.9 19.6 59 -13.6 7.4
23:00 1010 29.83 840 24.81 -6.9 19.5 59 -13.7 7.3
23:05 1010 29.83 840 24.81 -7 19.3 61 -13.3 8.1
23:10 1010 29.83 840 24.81 -7.1 19.3 61 -13.4 7.9
23:15 1010 29.83 840 24.81 -7 19.4 61 -13.3 8.1
23:20 1010 29.83 840 24.81 -6.8 19.7 61 -13.1 8.4
23:25 1010 29.83 840 24.81 -6.8 19.7 60 -13.3 8.1
23:30 1010 29.83 840 24.81 -6.8 19.7 60 -13.3 8.1
23:35 1010 29.83 840 24.81 -6.9 19.6 61 -13.3 8.1
23:40 1010 29.83 840 24.81 -7 19.4 61 -13.2 8.2
23:45 1010 29.83 840 24.81 -7.1 19.2 61 -13.3 8
23:50 1010 29.83 840 24.81 -7.2 19 61 -13.5 7.8
23:55 1010 29.83 840 24.81 -7.2 19 62 -13.4 7.9
24:00 1010 29.83 840 24.81 -7.5 18.5 63 -13.4 7.9